createdAt,value
2022-08-18T00:00:16.479Z,22.73
2022-08-18T00:03:00.916Z,22.73
2022-08-18T00:05:36.467Z,22.68
2022-08-18T00:08:11.276Z,22.65
2022-08-18T00:10:43.447Z,22.61
2022-08-18T00:13:15.526Z,22.56
2022-08-18T00:15:48.953Z,22.49
2022-08-18T00:18:21.457Z,22.46
2022-08-18T00:20:53.503Z,22.45
2022-08-18T00:23:25.545Z,22.46
2022-08-18T00:25:59.618Z,22.46
2022-08-18T00:28:31.723Z,22.48
2022-08-18T00:31:06.168Z,22.48
2022-08-18T00:33:38.431Z,22.45
2022-08-18T00:36:13.107Z,22.44
2022-08-18T00:38:45.126Z,22.43
2022-08-18T00:41:17.246Z,22.41
2022-08-18T00:43:52.297Z,22.34
2022-08-18T00:46:34.688Z,22.25
2022-08-18T00:49:06.665Z,22.21
2022-08-18T00:51:46.214Z,22.07
2022-08-18T00:54:26.740Z,21.96
2022-08-18T00:57:04.100Z,21.85
2022-08-18T00:59:38.855Z,21.78
2022-08-18T01:02:18.344Z,21.73
2022-08-18T01:05:01.055Z,21.71
2022-08-18T01:07:42.403Z,21.70
2022-08-18T01:10:21.819Z,21.63
2022-08-18T01:12:58.168Z,21.50
2022-08-18T01:15:30.782Z,21.48
2022-08-18T01:18:31.867Z,21.47
2022-08-18T01:21:41.529Z,21.43
2022-08-18T01:24:18.545Z,21.41
2022-08-18T01:26:53.259Z,21.51
2022-08-18T01:29:28.000Z,21.54
2022-08-18T01:32:00.119Z,21.56
2022-08-18T01:34:32.183Z,21.43
2022-08-18T01:37:05.780Z,21.31
2022-08-18T01:41:27.815Z,21.36
2022-08-18T01:42:30.891Z,21.34
2022-08-18T01:45:05.838Z,21.18
2022-08-18T01:47:47.088Z,21.16
2022-08-18T01:50:20.537Z,21.19
2022-08-18T01:52:53.792Z,21.27
2022-08-18T01:55:28.460Z,21.29
2022-08-18T01:58:01.533Z,21.37
2022-08-18T02:00:34.333Z,21.39
2022-08-18T02:03:09.905Z,21.37
2022-08-18T02:05:48.202Z,21.33
2022-08-18T02:08:20.129Z,21.36
2022-08-18T02:10:52.199Z,21.43
2022-08-18T02:13:25.168Z,21.43
2022-08-18T02:15:57.350Z,21.43
2022-08-18T02:18:47.436Z,21.47
2022-08-18T02:21:21.678Z,21.41
2022-08-18T02:23:54.182Z,21.34
2022-08-18T02:26:26.407Z,21.21
2022-08-18T02:28:58.525Z,21.13
2022-08-18T02:31:30.627Z,21.10
2022-08-18T02:34:02.753Z,21.03
2022-08-18T02:36:34.853Z,20.93
2022-08-18T02:39:06.818Z,20.99
2022-08-18T02:41:38.791Z,21.07
2022-08-18T02:44:11.588Z,21.12
2022-08-18T02:46:43.591Z,21.15
2022-08-18T02:49:15.594Z,21.13
2022-08-18T02:51:47.698Z,21.18
2022-08-18T02:54:23.265Z,21.20
2022-08-18T02:56:57.403Z,21.27
2022-08-18T02:59:31.768Z,21.08
2022-08-18T03:02:05.767Z,21.17
2022-08-18T03:04:38.166Z,21.13
2022-08-18T03:07:10.151Z,21.12
2022-08-18T03:09:42.825Z,21.14
2022-08-18T03:12:14.851Z,21.18
2022-08-18T03:14:46.889Z,21.19
2022-08-18T03:17:18.875Z,21.14
2022-08-18T03:19:50.841Z,21.24
2022-08-18T03:22:28.249Z,21.26
2022-08-18T03:25:01.775Z,21.20
2022-08-18T03:27:33.795Z,21.06
2022-08-18T03:30:11.440Z,21.15
2022-08-18T03:32:45.925Z,20.98
2022-08-18T03:35:18.348Z,20.88
2022-08-18T03:37:50.612Z,20.71
2022-08-18T03:40:22.748Z,20.75
2022-08-18T03:42:54.809Z,20.86
2022-08-18T03:45:28.674Z,20.94
2022-08-18T03:48:02.254Z,21.09
2022-08-18T03:50:34.296Z,21.20
2022-08-18T03:53:06.478Z,21.27
2022-08-18T03:55:41.962Z,21.23
2022-08-18T03:58:14.744Z,21.27
2022-08-18T04:00:46.696Z,21.28
2022-08-18T04:03:18.774Z,21.34
2022-08-18T04:05:50.719Z,21.35
2022-08-18T04:08:22.859Z,21.20
2022-08-18T04:10:54.855Z,21.12
2022-08-18T04:13:26.823Z,21.15
2022-08-18T04:16:00.137Z,21.28
2022-08-18T04:18:32.640Z,21.21
2022-08-18T04:21:08.357Z,21.18
2022-08-18T04:23:43.387Z,21.14
2022-08-18T04:26:19.434Z,21.21
2022-08-18T04:28:51.580Z,21.21
2022-08-18T04:31:24.860Z,21.37
2022-08-18T04:33:59.011Z,21.45
2022-08-18T04:36:34.612Z,21.49
2022-08-18T04:39:09.811Z,21.46
2022-08-18T04:41:44.161Z,21.49
2022-08-18T04:44:17.693Z,21.44
2022-08-18T04:46:53.096Z,21.47
2022-08-18T04:49:26.714Z,21.44
2022-08-18T04:52:22.633Z,21.35
2022-08-18T04:55:10.990Z,21.31
2022-08-18T04:57:42.998Z,21.34
2022-08-18T05:00:15.437Z,21.35
2022-08-18T05:02:47.435Z,21.46
2022-08-18T05:05:19.414Z,21.53
2022-08-18T05:07:51.601Z,21.56
2022-08-18T05:10:23.663Z,21.48
2022-08-18T05:12:55.795Z,21.29
2022-08-18T05:15:27.775Z,21.39
2022-08-18T05:17:59.807Z,21.42
2022-08-18T05:20:31.760Z,21.42
2022-08-18T05:23:04.170Z,21.58
2022-08-18T05:25:36.664Z,21.69
2022-08-18T05:28:09.938Z,21.78
2022-08-18T05:30:42.726Z,21.84
2022-08-18T05:33:14.725Z,21.87
2022-08-18T05:35:52.105Z,21.86
2022-08-18T05:39:11.718Z,21.93
2022-08-18T05:41:56.043Z,21.98
2022-08-18T05:44:31.835Z,21.93
2022-08-18T05:47:24.275Z,21.78
2022-08-18T05:50:03.682Z,21.80
2022-08-18T05:52:38.319Z,21.76
2022-08-18T05:55:40.133Z,21.72
2022-08-18T05:58:19.364Z,21.65
2022-08-18T06:01:03.565Z,21.71
2022-08-18T06:03:56.990Z,21.74
2022-08-18T06:06:31.489Z,21.90
2022-08-18T06:09:29.291Z,21.89
2022-08-18T06:12:33.627Z,21.89
2022-08-18T06:15:50.990Z,21.97
2022-08-18T06:18:56.225Z,21.99
2022-08-18T06:22:01.537Z,22.07
2022-08-18T06:24:43.031Z,22.08
2022-08-18T06:27:31.469Z,22.05
2022-08-18T06:30:20.152Z,22.08
2022-08-18T06:33:01.095Z,21.92
2022-08-18T06:35:54.859Z,21.95
2022-08-18T06:38:57.762Z,22.01
2022-08-18T06:41:42.945Z,22.04
2022-08-18T06:44:31.496Z,22.00
2022-08-18T06:47:47.539Z,22.21
2022-08-18T06:50:43.548Z,22.30
2022-08-18T06:53:26.755Z,22.43
2022-08-18T06:56:35.095Z,22.57
2022-08-18T06:59:32.194Z,22.47
2022-08-18T07:02:27.431Z,22.51
2022-08-18T07:05:22.602Z,22.73
2022-08-18T07:08:19.560Z,22.91
2022-08-18T07:10:53.395Z,23.01
2022-08-18T07:13:30.285Z,22.95
2022-08-18T07:16:56.527Z,22.98
2022-08-18T07:19:31.087Z,22.92
2022-08-18T07:22:14.674Z,22.88
2022-08-18T07:24:54.583Z,22.83
2022-08-18T07:27:49.235Z,22.74
2022-08-18T07:30:21.079Z,22.68
2022-08-18T07:33:05.181Z,22.72
2022-08-18T07:36:04.380Z,22.80
2022-08-18T07:38:47.144Z,22.77
2022-08-18T07:41:26.803Z,22.90
2022-08-18T07:44:18.708Z,22.99
2022-08-18T07:47:05.223Z,23.18
2022-08-18T07:49:43.041Z,23.30
2022-08-18T07:52:43.709Z,23.36
2022-08-18T07:55:33.430Z,23.33
2022-08-18T07:58:54.574Z,23.38
2022-08-18T08:01:41.035Z,23.40
2022-08-18T08:05:00.784Z,23.46
2022-08-18T08:07:41.780Z,23.55
2022-08-18T08:11:03.902Z,23.68
2022-08-18T08:13:55.636Z,23.73
2022-08-18T08:16:50.247Z,23.42
2022-08-18T08:19:59.992Z,23.36
2022-08-18T08:23:02.246Z,23.14
2022-08-18T08:26:18.699Z,23.26
2022-08-18T08:29:24.983Z,23.35
2022-08-18T08:32:34.581Z,23.36
2022-08-18T08:35:49.771Z,23.37
2022-08-18T08:38:42.901Z,23.56
2022-08-18T08:41:41.987Z,23.61
2022-08-18T08:44:21.604Z,23.60
2022-08-18T08:47:11.152Z,23.59
2022-08-18T08:50:00.635Z,23.51
2022-08-18T08:52:48.306Z,23.52
2022-08-18T08:55:36.394Z,23.68
2022-08-18T08:58:08.305Z,23.78
2022-08-18T09:00:42.941Z,23.88
2022-08-18T09:03:42.896Z,23.91
2022-08-18T09:06:43.581Z,23.94
2022-08-18T09:09:56.185Z,23.87
2022-08-18T09:12:55.335Z,23.86
2022-08-18T09:16:13.799Z,24.04
2022-08-18T09:19:13.770Z,24.07
2022-08-18T09:22:19.433Z,24.14
2022-08-18T09:24:56.655Z,24.06
2022-08-18T09:28:10.023Z,24.10
2022-08-18T09:31:19.623Z,24.02
2022-08-18T09:34:06.685Z,24.22
2022-08-18T09:37:04.151Z,24.34
2022-08-18T09:40:00.108Z,24.39
2022-08-18T09:43:05.967Z,24.39
2022-08-18T09:45:47.194Z,24.49
2022-08-18T09:51:36.154Z,25.03
2022-08-18T09:54:21.387Z,25.63
2022-08-18T09:57:23.607Z,26.13
2022-08-18T10:00:28.125Z,26.67
2022-08-18T10:03:11.861Z,27.71
2022-08-18T10:06:03.609Z,28.66
2022-08-18T10:09:36.681Z,28.78
2022-08-18T10:12:19.396Z,29.66
2022-08-18T10:15:08.866Z,30.36
2022-08-18T10:18:17.301Z,30.68
2022-08-18T10:21:31.074Z,30.58
2022-08-18T10:24:36.446Z,30.50
2022-08-18T10:27:32.469Z,31.11
2022-08-18T10:30:06.450Z,31.19
2022-08-18T10:32:54.225Z,31.07
2022-08-18T10:35:38.397Z,31.40
2022-08-18T10:38:30.986Z,31.73
2022-08-18T10:41:30.780Z,32.64
2022-08-18T10:44:27.390Z,32.61
2022-08-18T10:46:59.954Z,31.77
2022-08-18T10:49:33.325Z,30.75
2022-08-18T10:52:29.409Z,29.88
2022-08-18T10:55:22.453Z,29.57
2022-08-18T10:58:28.062Z,29.71
2022-08-18T11:01:15.660Z,29.33
2022-08-18T11:04:33.501Z,30.46
2022-08-18T11:07:18.187Z,32.77
2022-08-18T11:10:04.505Z,34.33
2022-08-18T11:13:10.070Z,34.71
2022-08-18T11:15:54.810Z,35.61
2022-08-18T11:18:50.499Z,36.50
2022-08-18T11:21:51.638Z,35.64
2022-08-18T11:24:31.598Z,35.10
2022-08-18T11:27:23.958Z,33.67
2022-08-18T11:30:00.996Z,32.64
2022-08-18T11:32:35.346Z,31.67
2022-08-18T11:35:14.410Z,30.87
2022-08-18T11:38:00.580Z,29.94
2022-08-18T11:43:41.578Z,28.60
2022-08-18T11:46:28.258Z,28.08
2022-08-18T11:49:30.128Z,27.75
2022-08-18T11:52:29.393Z,27.55
2022-08-18T11:58:50.659Z,27.21
2022-08-18T12:01:42.117Z,27.21
2022-08-18T12:04:14.566Z,27.13
2022-08-18T12:06:55.490Z,27.10
2022-08-18T12:10:16.374Z,27.18
2022-08-18T12:12:33.102Z,27.19
2022-08-18T12:15:24.115Z,27.23
2022-08-18T12:17:56.916Z,27.21
2022-08-18T12:20:29.908Z,27.10
2022-08-18T12:23:01.906Z,27.14
2022-08-18T12:25:33.878Z,27.36
2022-08-18T12:28:11.183Z,27.39
2022-08-18T12:30:43.317Z,27.58
2022-08-18T12:33:16.698Z,27.81
2022-08-18T12:35:59.153Z,27.94
2022-08-18T12:38:36.448Z,28.00
2022-08-18T12:41:12.000Z,27.92
2022-08-18T12:43:43.996Z,27.99
2022-08-18T12:46:31.220Z,27.95
2022-08-18T12:49:05.321Z,27.93
2022-08-18T12:51:37.733Z,28.01
2022-08-18T12:57:06.642Z,28.12
2022-08-18T12:59:38.830Z,28.05
2022-08-18T13:02:13.781Z,27.91
2022-08-18T13:04:47.551Z,27.84
2022-08-18T13:07:19.713Z,27.87
2022-08-18T13:09:54.616Z,27.90
2022-08-18T13:12:27.514Z,28.08
2022-08-18T13:15:00.935Z,28.41
2022-08-18T13:17:34.367Z,28.54
2022-08-18T13:20:13.508Z,28.50
2022-08-18T13:22:45.932Z,28.07
2022-08-18T13:25:32.713Z,27.93
2022-08-18T13:28:11.918Z,27.71
2022-08-18T13:30:46.336Z,27.54
2022-08-18T13:33:34.701Z,27.64
2022-08-18T13:36:10.745Z,27.42
2022-08-18T13:38:43.582Z,27.45
2022-08-18T13:41:16.903Z,27.29
2022-08-18T13:43:49.046Z,27.46
2022-08-18T13:46:29.819Z,27.60
2022-08-18T13:49:03.591Z,27.94
2022-08-18T13:51:35.971Z,28.34
2022-08-18T13:54:29.659Z,28.42
2022-08-18T13:57:04.997Z,28.06
2022-08-18T13:59:38.898Z,27.89
2022-08-18T14:02:18.957Z,27.54
2022-08-18T14:04:51.767Z,27.66
2022-08-18T14:07:27.799Z,28.10
2022-08-18T14:10:03.676Z,28.49
2022-08-18T14:12:38.199Z,28.49
2022-08-18T14:15:15.430Z,28.23
2022-08-18T14:17:47.866Z,27.93
2022-08-18T14:20:39.245Z,27.50
2022-08-18T14:23:38.797Z,27.19
2022-08-18T14:26:34.035Z,27.14
2022-08-18T14:29:06.126Z,27.12
2022-08-18T14:31:45.081Z,27.21
2022-08-18T14:34:21.674Z,27.34
2022-08-18T14:36:53.937Z,27.52
2022-08-18T14:39:27.654Z,27.57
2022-08-18T14:41:59.784Z,27.48
2022-08-18T14:44:35.157Z,27.25
2022-08-18T14:47:07.472Z,27.23
2022-08-18T14:49:42.989Z,27.20
2022-08-18T14:52:21.478Z,27.08
2022-08-18T14:54:54.130Z,27.25
2022-08-18T14:57:26.937Z,27.37
2022-08-18T14:59:59.016Z,27.35
2022-08-18T15:02:31.025Z,27.34
2022-08-18T15:05:19.430Z,27.51
2022-08-18T15:07:56.092Z,27.30
2022-08-18T15:10:29.449Z,27.18
2022-08-18T15:13:03.683Z,27.37
2022-08-18T15:15:50.773Z,27.58
2022-08-18T15:18:24.093Z,27.77
2022-08-18T15:21:19.527Z,27.61
2022-08-18T15:24:26.884Z,27.39
2022-08-18T15:27:05.727Z,27.41
2022-08-18T15:29:41.378Z,27.48
2022-08-18T15:32:17.603Z,27.39
2022-08-18T15:34:51.454Z,27.31
2022-08-18T15:37:24.428Z,27.24
2022-08-18T15:40:21.945Z,27.02
2022-08-18T15:43:10.279Z,26.74
2022-08-18T15:45:56.129Z,26.78
2022-08-18T15:48:30.014Z,26.85
2022-08-18T15:51:11.946Z,26.74
2022-08-18T15:53:45.017Z,26.38
2022-08-18T15:56:21.732Z,26.37
2022-08-18T15:58:54.260Z,26.21
2022-08-18T16:01:32.327Z,26.11
2022-08-18T16:06:59.653Z,25.96
2022-08-18T16:09:31.710Z,25.85
2022-08-18T16:12:04.155Z,25.78
2022-08-18T16:14:40.799Z,25.74
2022-08-18T16:17:23.787Z,25.56
2022-08-18T16:20:02.192Z,25.61
2022-08-18T16:22:37.489Z,25.65
2022-08-18T16:25:10.289Z,25.48
2022-08-18T16:27:43.419Z,25.46
2022-08-18T16:30:20.816Z,25.36
2022-08-18T16:32:53.567Z,25.29
2022-08-18T16:35:25.594Z,25.14
2022-08-18T16:38:04.641Z,25.04
2022-08-18T16:40:37.670Z,25.08
2022-08-18T16:43:10.556Z,25.07
2022-08-18T16:45:42.985Z,25.12
2022-08-18T16:48:16.874Z,24.99
2022-08-18T16:50:51.334Z,25.02
2022-08-18T16:53:23.602Z,24.98
2022-08-18T16:55:55.655Z,24.74
2022-08-18T16:58:46.377Z,24.78
2022-08-18T17:01:48.795Z,24.58
2022-08-18T17:04:30.019Z,24.58
2022-08-18T17:07:07.179Z,24.49
2022-08-18T17:09:39.338Z,24.49
2022-08-18T17:12:11.787Z,24.52
2022-08-18T17:14:43.772Z,24.56
2022-08-18T17:17:19.018Z,24.57
2022-08-18T17:19:52.036Z,24.52
2022-08-18T17:22:23.998Z,24.51
2022-08-18T17:25:02.199Z,24.42
2022-08-18T17:27:37.602Z,24.40
2022-08-18T17:30:18.041Z,24.33
2022-08-18T17:32:56.733Z,24.16
2022-08-18T17:35:42.018Z,24.08
2022-08-18T17:38:38.284Z,24.06
2022-08-18T17:41:12.659Z,23.99
2022-08-18T17:46:41.072Z,23.79
2022-08-18T17:49:22.812Z,23.73
2022-08-18T17:51:56.777Z,23.72
2022-08-18T17:54:38.240Z,23.65
2022-08-18T17:57:25.457Z,23.61
2022-08-18T18:00:17.071Z,23.58
2022-08-18T18:02:49.316Z,23.54
2022-08-18T18:05:22.025Z,23.47
2022-08-18T18:07:59.250Z,23.44
2022-08-18T18:11:04.446Z,23.37
2022-08-18T18:13:36.999Z,23.28
2022-08-18T18:16:37.171Z,23.28
2022-08-18T18:19:13.437Z,23.08
2022-08-18T18:22:00.556Z,23.04
2022-08-18T18:24:38.381Z,22.94
2022-08-18T18:27:40.733Z,22.85
2022-08-18T18:30:19.297Z,22.83
2022-08-18T18:33:05.166Z,22.78
2022-08-18T18:35:54.878Z,22.77
2022-08-18T18:38:39.804Z,22.79
2022-08-18T18:41:16.813Z,22.74
2022-08-18T18:43:51.272Z,22.75
2022-08-18T18:46:31.803Z,22.63
2022-08-18T18:49:15.693Z,22.52
2022-08-18T18:52:16.584Z,22.43
2022-08-18T18:55:05.011Z,22.48
2022-08-18T18:57:59.750Z,22.46
2022-08-18T19:01:10.089Z,22.43
2022-08-18T19:03:52.650Z,22.35
2022-08-18T19:06:28.583Z,22.22
2022-08-18T19:09:18.348Z,22.20
2022-08-18T19:11:57.888Z,22.19
2022-08-18T19:14:36.974Z,22.17
2022-08-18T19:17:33.100Z,22.15
2022-08-18T19:20:21.681Z,22.07
2022-08-18T19:23:19.525Z,22.10
2022-08-18T19:26:11.232Z,22.04
2022-08-18T19:29:13.144Z,21.96
2022-08-18T19:31:56.017Z,21.89
2022-08-18T19:34:37.814Z,21.86
2022-08-18T19:37:34.704Z,21.73
2022-08-18T19:40:22.020Z,21.77
2022-08-18T19:43:26.719Z,21.78
2022-08-18T19:46:36.158Z,21.77
2022-08-18T19:49:39.879Z,21.65
2022-08-18T19:52:47.228Z,21.62
2022-08-18T19:55:47.511Z,21.47
2022-08-18T19:59:15.744Z,21.47
2022-08-18T20:02:17.623Z,21.28
2022-08-18T20:05:29.153Z,21.15
2022-08-18T20:08:19.009Z,21.18
2022-08-18T20:11:16.707Z,21.19
2022-08-18T20:13:50.103Z,21.11
2022-08-18T20:16:43.886Z,21.18
2022-08-18T20:19:46.453Z,21.18
2022-08-18T20:22:21.762Z,21.18
2022-08-18T20:25:23.826Z,21.18
2022-08-18T20:27:58.705Z,21.14
2022-08-18T20:31:12.600Z,21.05
2022-08-18T20:34:04.184Z,21.06
2022-08-18T20:36:42.292Z,21.07
2022-08-18T20:39:48.220Z,21.05
2022-08-18T20:42:24.569Z,21.02
2022-08-18T20:45:11.054Z,21.02
2022-08-18T20:48:04.344Z,20.98
2022-08-18T20:50:58.199Z,20.97
2022-08-18T20:54:02.307Z,20.96
2022-08-18T20:56:43.456Z,20.89
2022-08-18T20:59:23.735Z,20.83
2022-08-18T21:02:06.007Z,20.81
2022-08-18T21:04:52.165Z,20.76
2022-08-18T21:07:37.916Z,20.74
2022-08-18T21:10:20.126Z,20.77
2022-08-18T21:12:57.285Z,20.79
2022-08-18T21:15:36.286Z,20.75
2022-08-18T21:18:21.671Z,20.76
2022-08-18T21:20:57.233Z,20.77
2022-08-18T21:23:33.917Z,20.78
2022-08-18T21:26:15.918Z,20.76
2022-08-18T21:28:54.010Z,20.69
2022-08-18T21:31:42.803Z,20.67
2022-08-18T21:34:34.910Z,20.58
2022-08-18T21:37:10.251Z,20.56
2022-08-18T21:39:51.322Z,20.57
2022-08-18T21:42:43.633Z,20.57
2022-08-18T21:45:23.415Z,20.61
2022-08-18T21:47:59.363Z,20.61
2022-08-18T21:50:35.799Z,20.60
2022-08-18T21:53:28.170Z,20.54
2022-08-18T21:56:01.776Z,20.50
2022-08-18T21:58:40.879Z,20.46
2022-08-18T22:01:24.488Z,20.45
2022-08-18T22:04:02.957Z,20.39
2022-08-18T22:06:34.867Z,20.37
2022-08-18T22:09:32.754Z,20.33
2022-08-18T22:12:41.156Z,20.26
2022-08-18T22:15:20.484Z,20.27
2022-08-18T22:18:28.698Z,20.23
2022-08-18T22:21:02.374Z,20.33
2022-08-18T22:24:04.848Z,20.38
2022-08-18T22:26:38.616Z,20.43
2022-08-18T22:29:13.463Z,20.42
2022-08-18T22:31:49.876Z,20.48
2022-08-18T22:34:27.382Z,20.46
2022-08-18T22:37:12.106Z,20.50
2022-08-18T22:39:57.209Z,20.51
2022-08-18T22:42:35.073Z,20.50
2022-08-18T22:45:13.692Z,20.51
2022-08-18T22:47:45.726Z,20.42
2022-08-18T22:50:17.797Z,20.39
2022-08-18T22:52:50.214Z,20.41
2022-08-18T22:55:24.202Z,20.47
2022-08-18T22:57:57.193Z,20.50
2022-08-18T23:00:29.679Z,20.52
2022-08-18T23:03:02.192Z,20.50
2022-08-18T23:05:34.231Z,20.40
2022-08-18T23:08:06.203Z,20.44
2022-08-18T23:10:38.183Z,20.46
2022-08-18T23:13:11.311Z,20.50
2022-08-18T23:15:47.706Z,20.51
2022-08-18T23:18:21.791Z,20.49
2022-08-18T23:21:00.180Z,20.53
2022-08-18T23:23:32.325Z,20.52
2022-08-18T23:26:04.385Z,20.58
2022-08-18T23:28:36.407Z,20.61
2022-08-18T23:31:08.414Z,20.60
2022-08-18T23:33:41.733Z,20.58
2022-08-18T23:36:13.735Z,20.67
2022-08-18T23:38:45.704Z,20.71
2022-08-18T23:41:17.727Z,20.72
2022-08-18T23:43:50.792Z,20.79
2022-08-18T23:46:30.550Z,20.79
2022-08-18T23:49:09.248Z,20.81
2022-08-18T23:51:49.678Z,20.78
2022-08-18T23:54:30.255Z,20.78
2022-08-18T23:57:02.612Z,20.80
2022-08-18T23:59:34.585Z,20.80
